createdAt,value
2018-09-20T00:02:41.204Z,97523.23
2018-09-20T00:07:36.025Z,97530.23
2018-09-20T00:12:30.801Z,97523.11
2018-09-20T00:17:25.576Z,97520.96
2018-09-20T00:22:20.445Z,97529.63
2018-09-20T00:27:15.264Z,97524.47
2018-09-20T00:32:10.045Z,97520.76
2018-09-20T00:37:04.883Z,97516.81
2018-09-20T00:41:59.621Z,97513.47
2018-09-20T00:46:54.437Z,97513.88
2018-09-20T00:51:49.249Z,97516.84
2018-09-20T00:56:44.128Z,97516.84
2018-09-20T01:01:38.953Z,97519.34
2018-09-20T01:06:33.785Z,97519.00
2018-09-20T01:11:28.652Z,97513.63
2018-09-20T01:16:23.421Z,97515.86
2018-09-20T01:21:18.298Z,97520.39
2018-09-20T01:26:13.062Z,97527.59
2018-09-20T01:31:07.900Z,97526.26
2018-09-20T01:36:02.717Z,97531.11
2018-09-20T01:40:57.553Z,97534.40
2018-09-20T01:45:52.350Z,97535.22
2018-09-20T01:50:47.156Z,97530.30
2018-09-20T01:55:42.001Z,97532.65
2018-09-20T02:00:36.799Z,97527.84
2018-09-20T02:05:31.592Z,97522.85
2018-09-20T02:10:26.403Z,97524.13
2018-09-20T02:15:21.289Z,97521.51
2018-09-20T02:20:16.053Z,97517.88
2018-09-20T02:25:10.898Z,97518.06
2018-09-20T02:30:05.796Z,97513.67
2018-09-20T02:35:00.624Z,97514.03
2018-09-20T02:39:55.413Z,97507.75
2018-09-20T02:44:50.170Z,97501.48
2018-09-20T02:49:45.081Z,97501.32
2018-09-20T02:54:39.865Z,97512.14
2018-09-20T02:59:34.645Z,97509.02
2018-09-20T03:04:29.554Z,97511.39
2018-09-20T03:09:24.341Z,97514.20
2018-09-20T03:14:19.128Z,97522.89
2018-09-20T03:19:13.928Z,97525.41
2018-09-20T03:24:08.879Z,97519.30
2018-09-20T03:29:03.763Z,97520.86
2018-09-20T03:33:58.784Z,97524.59
2018-09-20T03:38:53.669Z,97521.80
2018-09-20T03:43:48.607Z,97517.69
2018-09-20T03:48:43.505Z,97516.53
2018-09-20T03:53:39.225Z,97515.71
2018-09-20T03:58:34.128Z,97525.70
2018-09-20T04:03:28.978Z,97535.88
2018-09-20T04:08:23.873Z,97549.15
2018-09-20T04:13:18.783Z,97555.91
2018-09-20T04:18:13.675Z,97542.97
2018-09-20T04:23:08.561Z,97543.09
2018-09-20T04:28:03.355Z,97544.12
2018-09-20T04:32:58.119Z,97540.03
2018-09-20T04:37:52.937Z,97540.19
2018-09-20T04:42:47.748Z,97542.30
2018-09-20T04:47:42.501Z,97540.44
2018-09-20T04:52:37.291Z,97541.14
2018-09-20T04:57:32.130Z,97547.29
2018-09-20T05:02:26.920Z,97548.45
2018-09-20T05:07:21.729Z,97553.80
2018-09-20T05:12:18.007Z,97549.01
2018-09-20T05:17:12.798Z,97552.52
2018-09-20T05:22:07.685Z,97555.41
2018-09-20T05:27:02.595Z,97552.03
2018-09-20T05:31:57.469Z,97556.92
2018-09-20T05:36:52.469Z,97562.07
2018-09-20T05:41:47.354Z,97566.48
2018-09-20T05:46:42.790Z,97569.11
2018-09-20T05:51:37.672Z,97578.41
2018-09-20T05:56:33.027Z,97581.94
2018-09-20T06:01:29.130Z,97586.47
2018-09-20T06:06:24.053Z,97583.31
2018-09-20T06:11:18.970Z,97587.95
2018-09-20T06:16:13.973Z,97591.21
2018-09-20T06:21:08.906Z,97583.33
2018-09-20T06:26:03.827Z,97590.48
2018-09-20T06:30:58.755Z,97594.85
2018-09-20T06:35:53.754Z,97594.70
2018-09-20T06:40:48.688Z,97594.07
2018-09-20T06:45:44.142Z,97591.95
2018-09-20T06:50:39.149Z,97599.83
2018-09-20T06:55:34.135Z,97598.62
2018-09-20T07:00:29.062Z,97602.66
2018-09-20T07:05:23.998Z,97603.25
2018-09-20T07:10:18.842Z,97598.85
2018-09-20T07:15:13.765Z,97606.92
2018-09-20T07:20:08.834Z,97605.05
2018-09-20T07:25:03.773Z,97602.44
2018-09-20T07:29:58.707Z,97609.97
2018-09-20T07:34:53.643Z,97612.25
2018-09-20T07:39:48.650Z,97596.30
2018-09-20T07:44:43.614Z,97602.55
2018-09-20T07:49:38.583Z,97602.19
2018-09-20T07:54:33.491Z,97605.20
2018-09-20T07:59:28.398Z,97599.74
2018-09-20T08:04:26.347Z,97593.45
2018-09-20T08:09:21.441Z,97594.78
2018-09-20T08:14:16.313Z,97597.98
2018-09-20T08:19:11.515Z,97588.77
2018-09-20T08:24:06.670Z,97597.36
2018-09-20T08:29:01.605Z,97590.88
2018-09-20T08:33:56.623Z,97588.48
2018-09-20T08:38:51.666Z,97592.70
2018-09-20T08:43:46.581Z,97592.49
2018-09-20T08:48:41.804Z,97592.14
2018-09-20T08:53:36.793Z,97582.50
2018-09-20T08:58:33.647Z,97578.00
2018-09-20T09:03:28.596Z,97571.72
2018-09-20T09:08:23.563Z,97562.67
2018-09-20T09:13:18.407Z,97564.00
2018-09-20T09:18:13.405Z,97554.60
2018-09-20T09:23:08.321Z,97545.73
2018-09-20T09:28:03.278Z,97535.44
2018-09-20T09:32:58.205Z,97532.13
2018-09-20T09:37:53.154Z,97518.30
2018-09-20T09:42:48.130Z,97509.60
2018-09-20T09:47:43.046Z,97507.73
2018-09-20T09:52:38.037Z,97507.10
2018-09-20T09:57:33.209Z,97502.11
2018-09-20T10:02:28.162Z,97497.72
2018-09-20T10:07:23.426Z,97489.17
2018-09-20T10:12:18.418Z,97486.95
2018-09-20T10:17:13.359Z,97473.77
2018-09-20T10:22:08.377Z,97482.25
2018-09-20T10:27:03.218Z,97473.23
2018-09-20T10:31:58.203Z,97461.30
2018-09-20T10:36:53.239Z,97458.38
2018-09-20T10:41:48.314Z,97453.97
2018-09-20T10:46:43.646Z,97451.14
2018-09-20T10:51:38.658Z,97443.74
2018-09-20T10:56:33.934Z,97434.69
2018-09-20T11:01:28.854Z,97431.28
2018-09-20T11:06:23.985Z,97429.75
2018-09-20T11:11:19.090Z,97428.09
2018-09-20T11:16:14.136Z,97423.55
2018-09-20T11:21:09.313Z,97410.13
2018-09-20T11:26:04.433Z,97409.04
2018-09-20T11:30:59.395Z,97401.11
2018-09-20T11:35:54.453Z,97399.43
2018-09-20T11:40:49.369Z,97397.89
2018-09-20T11:45:44.399Z,97394.70
2018-09-20T11:50:39.641Z,97396.13
2018-09-20T11:55:34.742Z,97385.08
2018-09-20T12:00:29.735Z,97377.38
2018-09-20T12:05:24.742Z,97362.01
2018-09-20T12:10:20.110Z,97363.77
2018-09-20T12:15:15.081Z,97348.94
2018-09-20T12:20:10.015Z,97342.22
2018-09-20T12:25:05.031Z,97331.17
2018-09-20T12:30:00.063Z,97329.72
2018-09-20T12:34:55.158Z,97321.88
2018-09-20T12:39:50.094Z,97321.41
2018-09-20T12:44:45.073Z,97317.09
2018-09-20T12:49:40.413Z,97312.47
2018-09-20T12:54:35.458Z,97312.58
2018-09-20T12:59:30.403Z,97306.34
2018-09-20T13:04:25.855Z,97304.22
2018-09-20T13:09:20.762Z,97292.74
2018-09-20T13:14:15.647Z,97289.23
2018-09-20T13:19:10.614Z,97282.19
2018-09-20T13:24:05.686Z,97271.22
2018-09-20T13:29:00.633Z,97265.41
2018-09-20T13:33:55.669Z,97251.20
2018-09-20T13:38:50.686Z,97255.61
2018-09-20T13:43:46.471Z,97245.11
2018-09-20T13:48:41.461Z,97246.56
2018-09-20T13:53:36.404Z,97236.20
2018-09-20T13:58:31.358Z,97229.18
2018-09-20T14:03:26.662Z,97227.11
2018-09-20T14:08:21.581Z,97216.53
2018-09-20T14:13:16.596Z,97216.27
2018-09-20T14:18:11.626Z,97207.68
2018-09-20T14:23:06.614Z,97198.95
2018-09-20T14:28:01.522Z,97201.30
2018-09-20T14:32:56.517Z,97198.06
2018-09-20T14:37:51.566Z,97192.30
2018-09-20T14:42:46.470Z,97188.36
2018-09-20T14:47:41.539Z,97178.00
2018-09-20T14:52:36.543Z,97174.98
2018-09-20T14:57:31.431Z,97159.88
2018-09-20T15:02:26.315Z,97157.41
2018-09-20T15:07:21.619Z,97157.27
2018-09-20T15:12:16.670Z,97146.53
2018-09-20T15:17:11.630Z,97148.19
2018-09-20T15:22:06.713Z,97142.20
2018-09-20T15:27:01.661Z,97138.09
2018-09-20T15:31:56.549Z,97133.98
2018-09-20T15:36:51.525Z,97132.82
2018-09-20T15:41:46.450Z,97121.91
2018-09-20T15:46:41.387Z,97124.98
2018-09-20T15:51:36.433Z,97119.78
2018-09-20T15:56:31.463Z,97122.07
2018-09-20T16:01:26.402Z,97116.11
2018-09-20T16:06:21.443Z,97116.73
2018-09-20T16:11:16.357Z,97119.36
2018-09-20T16:16:11.326Z,97111.09
2018-09-20T16:21:06.315Z,97112.49
2018-09-20T16:26:01.301Z,97106.20
2018-09-20T16:31:16.110Z,97103.78
2018-09-20T16:36:25.641Z,97095.92
2018-09-20T16:41:27.345Z,97096.56
2018-09-20T16:46:22.235Z,97096.39
2018-09-20T16:51:17.383Z,97089.92
2018-09-20T16:56:16.989Z,97090.09
2018-09-20T17:01:11.928Z,97092.86
2018-09-20T17:06:06.796Z,97097.06
2018-09-20T17:11:01.615Z,97100.55
2018-09-20T17:15:56.515Z,97092.82
2018-09-20T17:20:51.475Z,97094.67
2018-09-20T17:25:46.462Z,97096.72
2018-09-20T17:30:41.331Z,97099.06
2018-09-20T17:35:36.852Z,97103.40
2018-09-20T17:40:34.182Z,97103.43
2018-09-20T17:45:29.373Z,97105.75
2018-09-20T17:50:24.164Z,97104.22
2018-09-20T17:55:19.654Z,97098.41
2018-09-20T18:00:14.499Z,97107.11
2018-09-20T18:05:09.510Z,97107.77
2018-09-20T18:10:04.513Z,97110.27
2018-09-20T18:14:59.551Z,97103.47
2018-09-20T18:19:54.471Z,97100.85
2018-09-20T18:24:49.390Z,97103.56
2018-09-20T18:29:44.298Z,97102.14
2018-09-20T18:34:39.191Z,97096.22
2018-09-20T18:39:34.146Z,97100.92
2018-09-20T18:44:29.092Z,97114.27
2018-09-20T18:49:24.024Z,97109.36
2018-09-20T18:54:18.972Z,97103.30
2018-09-20T18:59:13.873Z,97105.77
2018-09-20T19:04:08.792Z,97099.80
2018-09-20T19:09:03.963Z,97114.45
2018-09-20T19:13:58.851Z,97115.98
2018-09-20T19:18:53.790Z,97116.33
2018-09-20T19:23:48.785Z,97108.69
2018-09-20T19:28:43.595Z,97101.25
2018-09-20T19:33:38.577Z,97103.30
2018-09-20T19:38:33.461Z,97104.66
2018-09-20T19:43:28.333Z,97103.37
2018-09-20T19:48:23.198Z,97105.84
2018-09-20T19:53:18.680Z,97104.05
2018-09-20T19:58:13.557Z,97107.55
2018-09-20T20:03:08.632Z,97109.50
2018-09-20T20:08:03.610Z,97105.02
2018-09-20T20:12:58.704Z,97105.86
2018-09-20T20:17:53.622Z,97106.02
2018-09-20T20:22:48.568Z,97107.50
2018-09-20T20:27:44.057Z,97104.70
2018-09-20T20:32:40.132Z,97102.38
2018-09-20T20:37:35.012Z,97099.22
2018-09-20T20:42:29.941Z,97096.37
2018-09-20T20:47:24.830Z,97103.64
2018-09-20T20:52:19.826Z,97099.55
2018-09-20T20:57:14.796Z,97091.84
2018-09-20T21:02:09.778Z,97090.31
2018-09-20T21:07:04.697Z,97080.81
2018-09-20T21:11:59.635Z,97080.98
2018-09-20T21:16:54.914Z,97081.09
2018-09-20T21:21:49.827Z,97084.27
2018-09-20T21:27:17.750Z,97072.97
2018-09-20T21:32:12.662Z,97076.23
2018-09-20T21:37:07.677Z,97071.94
2018-09-20T21:42:02.546Z,97073.10
2018-09-20T21:46:57.444Z,97071.75
2018-09-20T21:51:52.344Z,97066.97
2018-09-20T21:56:47.318Z,97066.86
2018-09-20T22:01:48.001Z,97061.73
2018-09-20T22:06:42.959Z,97046.72
2018-09-20T22:11:38.474Z,97051.45
2018-09-20T22:16:33.398Z,97049.95
2018-09-20T22:21:28.405Z,97045.20
2018-09-20T22:26:23.412Z,97038.38
2018-09-20T22:31:18.729Z,97032.29
2018-09-20T22:36:13.656Z,97035.80
2018-09-20T22:41:08.628Z,97036.40
2018-09-20T22:46:03.639Z,97031.59
2018-09-20T22:51:01.757Z,97027.92
2018-09-20T22:55:56.695Z,97030.60
2018-09-20T23:00:51.717Z,97028.72
2018-09-20T23:05:47.581Z,97035.23
2018-09-20T23:10:42.516Z,97028.57
2018-09-20T23:15:38.341Z,97025.39
2018-09-20T23:20:37.547Z,97024.40
2018-09-20T23:25:32.486Z,97027.05
2018-09-20T23:30:27.374Z,97027.42
2018-09-20T23:35:24.452Z,97022.98
2018-09-20T23:40:19.384Z,97015.99
2018-09-20T23:45:16.109Z,97010.94
2018-09-20T23:50:11.471Z,97008.38
2018-09-20T23:55:07.563Z,97003.03
